Time;durP1;ratioP1;P1;durP2;ratioP2;P2;SDS_P1;SDS_P2;PMS_P1;PMS_P2;Temp;Humidity;BMP_temperature;BMP_pressure;BME280_temperature;BME280_humidity;BME280_pressure;Samples;Min_cycle;Max_cycle;Signal;HPM_P1;HPM_P2
2022/12/13 00:01:11;;;;;;;;;;;;;;;-5.52;100.00;100262.22;5069653;28;19920;-61
2022/12/13 00:03:37;;;;;;;;;;;;;;;-5.54;100.00;100250.31;5069113;28;19924;-61
2022/12/13 00:06:06;;;;;;;;;;;;;;;-5.57;100.00;100255.66;5064918;28;19972;-61
2022/12/13 00:08:31;;;;;;;;;;;;;;;-5.56;100.00;100257.31;5069353;28;19925;-61
2022/12/13 00:11:04;;;;;;;;;;;;;;;-5.57;100.00;100253.91;5064608;28;19994;-61
2022/12/13 00:13:29;;;;;;;;;;;;;;;-5.60;100.00;100259.28;5065641;28;19927;-61
2022/12/13 00:15:55;;;;;;;;;;;;;;;-5.57;100.00;100253.91;5068214;28;19921;-61
2022/12/13 00:18:20;;;;;;;;;;;;;;;-5.58;100.00;100259.16;5068933;28;20353;-61
2022/12/13 00:20:46;;;;;;;;;;;;;;;-5.57;100.00;100250.50;5070387;28;19920;-61
2022/12/13 00:23:11;;;;;;;;;;;;;;;-5.65;100.00;100260.44;5068183;28;20496;-61
2022/12/13 00:25:36;;;;;;;;;;;;;;;-5.65;100.00;100257.88;5068874;28;19970;-61
2022/12/13 00:28:02;;;;;;;;;;;;;;;-5.64;100.00;100250.03;5065972;28;19927;-59
2022/12/13 00:30:30;;;;;;;;;;;;;;;-5.67;100.00;100249.41;5067384;28;19928;-61
2022/12/13 00:32:55;;;;;;;;;;;;;;;-5.66;100.00;100249.28;5069338;28;19977;-62
2022/12/13 00:35:20;;;;;;;;;;;;;;;-5.63;100.00;100246.50;5070041;28;19920;-61
2022/12/13 00:37:46;;;;;;;;;;;;;;;-5.57;100.00;100245.34;5069702;28;19955;-61
2022/12/13 00:40:11;;;;;;;;;;;;;;;-5.51;100.00;100243.19;5068886;28;19964;-60
2022/12/13 00:42:36;;;;;;;;;;;;;;;-5.51;100.00;100250.13;5069616;28;20297;-61
2022/12/13 00:45:02;;;;;;;;;;;;;;;-5.57;100.00;100235.00;5071228;28;20381;-62
2022/12/13 00:47:27;;;;;;;;;;;;;;;-5.53;100.00;100242.44;5064593;28;20412;-61
2022/12/13 00:49:52;;;;;;;;;;;;;;;-5.51;100.00;100232.03;5069183;28;19927;-61
2022/12/13 00:52:18;;;;;;;;;;;;;;;-5.55;100.00;100239.16;5069693;28;19927;-61
2022/12/13 00:54:43;;;;;;;;;;;;;;;-5.57;100.00;100235.00;5073172;28;19920;-61
2022/12/13 00:57:08;;;;;;;;;;;;;;;-5.56;100.00;100229.72;5066492;28;19927;-61
2022/12/13 00:59:34;;;;;;;;;;;;;;;-5.43;100.00;100221.22;5067997;28;19932;-61
2022/12/13 01:01:59;;;;;;;;;;;;;;;-5.42;100.00;100220.28;5060888;28;19925;-61
2022/12/13 01:04:24;;;;;;;;;;;;;;;-5.50;100.00;100216.44;5066837;28;19920;-61
2022/12/13 01:06:50;;;;;;;;;;;;;;;-5.52;100.00;100217.47;5068840;28;19928;-61
2022/12/13 01:09:20;;;;;;;;;;;;;;;-5.56;100.00;100215.97;5068148;28;19936;-61
2022/12/13 01:11:46;;;;;;;;;;;;;;;-5.59;100.00;100221.34;5070332;28;19928;-61
2022/12/13 01:14:12;;;;;;;;;;;;;;;-5.62;100.00;100224.94;5072600;28;19927;-61
2022/12/13 01:16:37;;;;;;;;;;;;;;;-5.65;100.00;100219.13;5068507;28;20333;-61
2022/12/13 01:19:03;;;;;;;;;;;;;;;-5.68;100.00;100209.78;5063612;28;19928;-61
2022/12/13 01:21:28;;;;;;;;;;;;;;;-5.73;100.00;100217.84;5070362;28;19935;-61
2022/12/13 01:23:54;;;;;;;;;;;;;;;-5.74;100.00;100217.94;5070952;28;19921;-61
2022/12/13 01:26:20;;;;;;;;;;;;;;;-5.76;100.00;100207.69;5064014;28;20003;-61
2022/12/13 01:28:46;;;;;;;;;;;;;;;-5.76;100.00;100215.44;5080139;28;20412;-61
2022/12/13 01:31:16;;;;;;;;;;;;;;;-5.80;100.00;100224.31;5068608;28;19920;-61
2022/12/13 01:33:41;;;;;;;;;;;;;;;-5.87;100.00;100219.59;5071755;28;19920;-61
2022/12/13 01:36:08;;;;;;;;;;;;;;;-5.90;100.00;100223.19;5066485;28;19924;-61
2022/12/13 01:38:34;;;;;;;;;;;;;;;-5.95;100.00;100233.00;5065768;28;20284;-61
2022/12/13 01:40:59;;;;;;;;;;;;;;;-6.04;100.00;100229.22;5079320;28;20683;-61
2022/12/13 01:43:48;;;;;;;;;;;;;;;-6.10;100.00;100227.00;5078684;28;20288;-61
2022/12/13 01:46:14;;;;;;;;;;;;;;;-6.09;100.00;100233.84;5070891;28;19927;-62
2022/12/13 01:48:41;;;;;;;;;;;;;;;-6.10;100.00;100234.72;5072961;28;19967;-61
2022/12/13 01:51:09;;;;;;;;;;;;;;;-6.12;100.00;100231.41;5071508;28;19928;-61
2022/12/13 01:53:36;;;;;;;;;;;;;;;-6.12;100.00;100236.56;5063610;28;19931;-61
2022/12/13 01:56:05;;;;;;;;;;;;;;;-6.12;100.00;100235.75;5067187;28;20286;-61
2022/12/13 01:58:30;;;;;;;;;;;;;;;-6.16;100.00;100233.34;5064396;28;19920;-61
2022/12/13 02:00:57;;;;;;;;;;;;;;;-6.16;100.00;100242.84;5066553;28;19932;-61
2022/12/13 02:03:23;;;;;;;;;;;;;;;-6.21;100.00;100235.38;5072817;28;19959;-61
2022/12/13 02:05:51;;;;;;;;;;;;;;;-6.22;100.00;100241.47;5068903;28;19962;-61
2022/12/13 02:08:18;;;;;;;;;;;;;;;-6.25;100.00;100240.78;5071170;28;20015;-60
2022/12/13 02:10:43;;;;;;;;;;;;;;;-6.25;100.00;100241.63;5067893;28;19924;-61
2022/12/13 02:13:09;;;;;;;;;;;;;;;-6.26;100.00;100246.88;5071887;28;19929;-60
2022/12/13 02:15:40;;;;;;;;;;;;;;;-6.33;100.00;100240.41;5063827;28;20007;-60
2022/12/13 02:18:19;;;;;;;;;;;;;;;-6.37;100.00;100240.59;5068579;28;19925;-61
2022/12/13 02:20:59;;;;;;;;;;;;;;;-6.39;100.00;100233.88;5070864;28;20396;-61
2022/12/13 02:23:34;;;;;;;;;;;;;;;-6.40;100.00;100235.63;5067576;28;20015;-61
2022/12/13 02:26:20;;;;;;;;;;;;;;;-6.43;100.00;100233.22;5067431;28;19959;-60
2022/12/13 02:28:55;;;;;;;;;;;;;;;-6.45;100.00;100232.47;5061920;28;19967;-60
2022/12/13 02:31:34;;;;;;;;;;;;;;;-6.43;100.00;100243.53;5070845;28;20396;-60
2022/12/13 02:33:59;;;;;;;;;;;;;;;-6.40;100.00;100242.50;5067111;28;19973;-62
2022/12/13 02:36:28;;;;;;;;;;;;;;;-6.30;100.00;100247.97;5064499;28;20024;-61
2022/12/13 02:39:01;;;;;;;;;;;;;;;-6.31;100.00;100246.31;5063310;28;19971;-61
2022/12/13 02:41:38;;;;;;;;;;;;;;;-6.29;100.00;100242.72;5069043;28;19921;-61
2022/12/13 02:44:07;;;;;;;;;;;;;;;-6.27;100.00;100250.38;5067914;28;19920;-61
2022/12/13 02:46:35;;;;;;;;;;;;;;;-6.32;100.00;100242.06;5071114;28;19933;-61
2022/12/13 02:49:01;;;;;;;;;;;;;;;-6.32;100.00;100239.47;5062834;28;20363;-60
2022/12/13 02:51:27;;;;;;;;;;;;;;;-6.37;100.00;100240.59;5068779;28;19921;-62
2022/12/13 02:53:52;;;;;;;;;;;;;;;-6.38;100.00;100236.34;5069805;28;19928;-60
2022/12/13 02:56:18;;;;;;;;;;;;;;;-6.34;100.00;100243.94;5074771;28;20420;-60
2022/12/13 02:58:46;;;;;;;;;;;;;;;-6.31;100.00;100241.16;5067588;28;19932;-60
2022/12/13 03:01:22;;;;;;;;;;;;;;;-6.30;100.00;100242.81;5068601;28;19920;-61
2022/12/13 03:04:06;;;;;;;;;;;;;;;-6.31;100.00;100238.59;5077933;28;19924;-61
2022/12/13 03:06:44;;;;;;;;;;;;;;;-6.35;100.00;100243.06;5069883;28;19920;-61
2022/12/13 03:09:16;;;;;;;;;;;;;;;-6.32;100.00;100250.66;5066407;28;20385;-61
2022/12/13 03:14:34;;;;;;;;;;;;;;;-6.37;100.00;100248.34;5079881;28;19931;-61
2022/12/13 03:17:01;;;;;;;;;;;;;;;-6.34;100.00;100244.75;5066292;28;20015;-61
2022/12/13 03:19:27;;;;;;;;;;;;;;;-6.36;100.00;100238.84;5075968;28;19984;-60
2022/12/13 03:21:53;;;;;;;;;;;;;;;-6.37;100.00;100242.34;5061704;28;20015;-61
2022/12/13 03:24:19;;;;;;;;;;;;;;;-6.39;100.00;100239.03;5065930;28;19921;-60
2022/12/13 03:26:45;;;;;;;;;;;;;;;-6.37;100.00;100243.19;5070970;28;20266;-61
2022/12/13 03:29:10;;;;;;;;;;;;;;;-6.39;100.00;100246.75;5075667;28;19974;-60
2022/12/13 03:31:35;;;;;;;;;;;;;;;-6.43;100.00;100240.97;5067322;28;19925;-61
2022/12/13 03:34:01;;;;;;;;;;;;;;;-6.44;100.00;100249.59;5078466;28;19935;-61
2022/12/13 03:36:26;;;;;;;;;;;;;;;-6.46;100.00;100250.59;5070882;28;19920;-61
2022/12/13 03:38:52;;;;;;;;;;;;;;;-6.55;100.00;100228.75;5070865;28;19920;-60
2022/12/13 03:41:20;;;;;;;;;;;;;;;-6.57;100.00;100232.34;5070458;28;19981;-60
2022/12/13 03:43:45;;;;;;;;;;;;;;;-6.57;100.00;100224.59;5076738;28;19928;-60
2022/12/13 03:46:10;;;;;;;;;;;;;;;-6.59;100.00;100222.94;5068286;28;19937;-60
2022/12/13 03:48:36;;;;;;;;;;;;;;;-6.59;100.00;100228.09;5068603;28;19928;-60
2022/12/13 03:51:01;;;;;;;;;;;;;;;-6.59;100.00;100222.94;5072518;28;20012;-59
2022/12/13 03:53:27;;;;;;;;;;;;;;;-6.56;100.00;100219.34;5072522;28;20551;-60
2022/12/13 03:55:52;;;;;;;;;;;;;;;-6.57;100.00;100222.84;5065011;28;19967;-60
2022/12/13 03:58:17;;;;;;;;;;;;;;;-6.56;100.00;100219.34;5070935;28;19928;-60
2022/12/13 04:00:43;;;;;;;;;;;;;;;-6.56;100.00;100218.50;5069159;28;20380;-60
2022/12/13 04:03:08;;;;;;;;;;;;;;;-6.58;100.00;100223.78;5073216;28;20268;-58
2022/12/13 04:05:33;;;;;;;;;;;;;;;-6.59;100.00;100216.94;5064720;28;20035;-60
2022/12/13 04:07:58;;;;;;;;;;;;;;;-6.63;100.00;100211.16;5068676;28;20340;-60
2022/12/13 04:10:24;;;;;;;;;;;;;;;-6.64;100.00;100204.31;5071664;28;20255;-60
2022/12/13 04:15:33;;;;;;;;;;;;;;;-6.65;100.00;100202.66;5077056;28;20002;-60
2022/12/13 04:17:58;;;;;;;;;;;;;;;-6.65;100.00;100194.09;5070970;28;19928;-60
2022/12/13 04:20:24;;;;;;;;;;;;;;;-6.65;100.00;100194.09;5067810;28;19928;-61
2022/12/13 04:22:49;;;;;;;;;;;;;;;-6.64;100.00;100193.16;5070521;28;19920;-60
2022/12/13 04:25:14;;;;;;;;;;;;;;;-6.65;100.00;100191.53;5063891;28;19956;-60
2022/12/13 04:27:39;;;;;;;;;;;;;;;-6.67;100.00;100188.19;5070320;28;20052;-60
2022/12/13 04:30:05;;;;;;;;;;;;;;;-6.64;100.00;100185.44;5066713;28;19947;-59
2022/12/13 04:32:30;;;;;;;;;;;;;;;-6.65;100.00;100192.34;5073120;28;20281;-60
2022/12/13 04:34:55;;;;;;;;;;;;;;;-6.63;100.00;100205.16;5071092;28;20021;-60
2022/12/13 04:37:21;;;;;;;;;;;;;;;-6.59;100.00;100191.16;5072300;28;19920;-60
2022/12/13 04:39:46;;;;;;;;;;;;;;;-6.61;100.00;100180.94;5074649;28;19924;-60
2022/12/13 04:42:11;;;;;;;;;;;;;;;-6.63;100.00;100187.09;5072272;28;20395;-60
2022/12/13 04:44:36;;;;;;;;;;;;;;;-6.62;100.00;100183.59;5079306;28;19916;-60
2022/12/13 04:47:02;;;;;;;;;;;;;;;-6.62;100.00;100184.41;5061999;28;19924;-60
2022/12/13 04:49:28;;;;;;;;;;;;;;;-6.61;100.00;100182.66;5065207;28;19931;-60
2022/12/13 04:51:53;;;;;;;;;;;;;;;-6.63;100.00;100187.09;5061461;28;19917;-58
2022/12/13 04:54:18;;;;;;;;;;;;;;;-6.62;100.00;100187.00;5059633;28;20367;-60
2022/12/13 04:56:44;;;;;;;;;;;;;;;-6.57;100.00;100193.66;5063997;28;20310;-60
2022/12/13 04:59:09;;;;;;;;;;;;;;;-6.58;100.00;100195.41;5068393;28;19924;-60
2022/12/13 05:01:35;;;;;;;;;;;;;;;-6.59;100.00;100188.56;5067002;28;20020;-60
2022/12/13 05:04:01;;;;;;;;;;;;;;;-6.55;100.00;100187.50;5068714;28;19921;-59
2022/12/13 05:06:26;;;;;;;;;;;;;;;-6.52;100.00;100195.03;5062329;28;20007;-60
2022/12/13 05:08:51;;;;;;;;;;;;;;;-6.52;100.00;100189.06;5066250;28;20019;-60
2022/12/13 05:11:16;;;;;;;;;;;;;;;-6.51;100.00;100194.13;5063588;28;19925;-60
2022/12/13 05:13:42;;;;;;;;;;;;;;;-6.49;100.00;100194.84;5064805;28;19916;-60
2022/12/13 05:16:08;;;;;;;;;;;;;;;-6.46;100.00;100188.69;5073392;28;19928;-60
2022/12/13 05:18:33;;;;;;;;;;;;;;;-6.41;100.00;100190.06;5070143;28;19927;-60
2022/12/13 05:21:03;;;;;;;;;;;;;;;-6.36;100.00;100187.25;5070547;28;20018;-60
2022/12/13 05:23:28;;;;;;;;;;;;;;;-6.34;100.00;100180.25;5071941;28;19924;-60
2022/12/13 05:25:53;;;;;;;;;;;;;;;-6.34;100.00;100182.81;5067666;28;20335;-60
2022/12/13 05:28:18;;;;;;;;;;;;;;;-6.31;100.00;100179.22;5070190;28;19923;-61
2022/12/13 05:30:44;;;;;;;;;;;;;;;-6.30;100.00;100184.28;5068082;28;19943;-60
2022/12/13 05:33:09;;;;;;;;;;;;;;;-6.28;100.00;100181.63;5060525;28;19924;-60
2022/12/13 05:35:35;;;;;;;;;;;;;;;-6.26;100.00;100183.19;5077963;28;19924;-60
2022/12/13 05:38:00;;;;;;;;;;;;;;;-6.25;100.00;100174.53;5068861;28;19927;-60
2022/12/13 05:40:26;;;;;;;;;;;;;;;-6.20;100.00;100176.84;5069078;28;19921;-60
2022/12/13 05:42:52;;;;;;;;;;;;;;;-6.16;100.00;100168.81;5066115;28;19997;-60
2022/12/13 05:45:18;;;;;;;;;;;;;;;-6.15;100.00;100174.81;5067940;28;20474;-60
2022/12/13 05:47:43;;;;;;;;;;;;;;;-6.14;100.00;100171.31;5068690;28;19921;-60
2022/12/13 05:50:09;;;;;;;;;;;;;;;-6.08;100.00;100176.09;5064249;28;19931;-60
2022/12/13 05:52:34;;;;;;;;;;;;;;;-6.03;100.00;100174.09;5067450;28;19924;-60
2022/12/13 05:55:00;;;;;;;;;;;;;;;-6.00;100.00;100176.47;5063682;28;19998;-59
2022/12/13 05:57:25;;;;;;;;;;;;;;;-5.97;100.00;100172.88;5052853;28;19920;-60
2022/12/13 05:59:50;;;;;;;;;;;;;;;-5.96;100.00;100182.28;5051115;28;19920;-60
2022/12/13 06:02:18;;;;;;;;;;;;;;;-5.96;100.00;100184.88;5065601;28;19939;-60
2022/12/13 06:04:44;;;;;;;;;;;;;;;-5.95;100.00;100182.19;5064181;28;19928;-60
2022/12/13 06:07:09;;;;;;;;;;;;;;;-5.90;100.00;100173.31;5066454;28;19924;-60
2022/12/13 06:09:34;;;;;;;;;;;;;;;-5.86;100.00;100182.50;5070823;28;19920;-60
2022/12/13 06:12:00;;;;;;;;;;;;;;;-5.80;100.00;100189.91;5059300;28;19935;-61
2022/12/13 06:14:25;;;;;;;;;;;;;;;-5.79;100.00;100186.38;5058108;28;19926;-60
2022/12/13 06:16:51;;;;;;;;;;;;;;;-5.82;100.00;100182.25;5061660;28;19962;-61
2022/12/13 06:19:16;;;;;;;;;;;;;;;-5.79;100.00;100191.56;5068818;28;19955;-60
2022/12/13 06:21:41;;;;;;;;;;;;;;;-5.77;100.00;100180.22;5068314;28;19974;-61
2022/12/13 06:24:07;;;;;;;;;;;;;;;-5.78;100.00;100194.06;5062530;28;19927;-60
2022/12/13 06:26:33;;;;;;;;;;;;;;;-5.74;100.00;100182.59;5065424;28;19921;-61
2022/12/13 06:28:58;;;;;;;;;;;;;;;-5.72;100.00;100187.69;5064200;28;19920;-61
2022/12/13 06:31:23;;;;;;;;;;;;;;;-5.75;100.00;100188.69;5066835;28;19920;-62
2022/12/13 06:33:49;;;;;;;;;;;;;;;-5.76;100.00;100192.19;5065864;28;19921;-60
2022/12/13 06:36:14;;;;;;;;;;;;;;;-5.74;100.00;100197.28;5063797;28;19970;-61
2022/12/13 06:38:39;;;;;;;;;;;;;;;-5.77;100.00;100193.13;5069658;28;19920;-60
2022/12/13 06:41:12;;;;;;;;;;;;;;;-5.75;100.00;100211.13;5070643;28;19928;-60
2022/12/13 06:43:40;;;;;;;;;;;;;;;-5.75;100.00;100208.53;5069734;28;20381;-60
2022/12/13 06:46:05;;;;;;;;;;;;;;;-5.80;100.00;100213.16;5070902;28;20027;-61
2022/12/13 06:48:31;;;;;;;;;;;;;;;-5.82;100.00;100202.06;5074970;28;20007;-60
2022/12/13 06:51:01;;;;;;;;;;;;;;;-5.86;100.00;100203.16;5066707;28;19928;-60
2022/12/13 06:53:26;;;;;;;;;;;;;;;-5.90;100.00;100199.13;5070010;28;20046;-61
2022/12/13 06:55:52;;;;;;;;;;;;;;;-5.91;100.00;100187.97;5071973;28;20018;-61
2022/12/13 06:58:17;;;;;;;;;;;;;;;-5.94;100.00;100198.50;5070773;28;19929;-61
2022/12/13 07:00:42;;;;;;;;;;;;;;;-5.94;100.00;100201.94;5070868;28;19964;-61
2022/12/13 07:03:08;;;;;;;;;;;;;;;-5.97;100.00;100196.09;5072741;28;19924;-61
2022/12/13 07:05:33;;;;;;;;;;;;;;;-5.97;100.00;100194.34;5066539;28;19936;-60
2022/12/13 07:07:59;;;;;;;;;;;;;;;-5.98;100.00;100192.72;5072391;28;19939;-61
2022/12/13 07:10:24;;;;;;;;;;;;;;;-5.94;100.00;100201.09;5071994;28;19928;-60
2022/12/13 07:12:49;;;;;;;;;;;;;;;-5.94;100.00;100201.94;5068050;28;20015;-60
2022/12/13 07:15:14;;;;;;;;;;;;;;;-5.82;100.00;100194.34;5070752;28;19980;-60
2022/12/13 07:17:41;;;;;;;;;;;;;;;-5.73;100.00;100194.59;5068384;28;19920;-60
2022/12/13 07:20:07;;;;;;;;;;;;;;;-5.69;100.00;100197.81;5069787;28;19932;-60
2022/12/13 07:22:32;;;;;;;;;;;;;;;-5.61;100.00;100202.50;5067387;28;19925;-61
2022/12/13 07:24:57;;;;;;;;;;;;;;;-5.61;100.00;100197.34;5068025;28;19930;-59
2022/12/13 07:27:22;;;;;;;;;;;;;;;-5.60;100.00;100197.25;5084411;28;19925;-61
2022/12/13 07:29:48;;;;;;;;;;;;;;;-5.59;100.00;100198.91;5070023;28;19924;-61
2022/12/13 07:32:13;;;;;;;;;;;;;;;-5.55;100.00;100199.53;5068301;28;20273;-61
2022/12/13 07:34:38;;;;;;;;;;;;;;;-5.56;100.00;100206.47;5066766;28;20372;-61
2022/12/13 07:37:03;;;;;;;;;;;;;;;-5.57;100.00;100206.59;5068100;28;19932;-60
2022/12/13 07:39:31;;;;;;;;;;;;;;;-5.53;100.00;100208.84;5068947;28;19921;-60
2022/12/13 07:41:56;;;;;;;;;;;;;;;-5.45;100.00;100210.97;5071022;28;20267;-60
2022/12/13 07:44:22;;;;;;;;;;;;;;;-5.37;100.00;100202.75;5059143;28;19974;-61
2022/12/13 07:46:47;;;;;;;;;;;;;;;-5.40;100.00;100213.28;5064625;28;19921;-62
2022/12/13 07:49:12;;;;;;;;;;;;;;;-5.40;100.00;100224.44;5068915;28;19920;-61
2022/12/13 07:51:37;;;;;;;;;;;;;;;-5.41;100.00;100227.13;5067892;28;19925;-61
2022/12/13 07:54:03;;;;;;;;;;;;;;;-5.39;100.00;100233.03;5066443;28;20011;-61
2022/12/13 07:56:28;;;;;;;;;;;;;;;-5.37;100.00;100226.84;5070227;28;19952;-60
2022/12/13 07:58:53;;;;;;;;;;;;;;;-5.41;100.00;100222.78;5066464;28;20003;-61
2022/12/13 08:01:19;;;;;;;;;;;;;;;-5.40;100.00;100231.38;5068492;28;20023;-61
2022/12/13 08:03:46;;;;;;;;;;;;;;;-5.36;100.00;100225.09;5066697;28;20019;-61
2022/12/13 08:06:12;;;;;;;;;;;;;;;-5.26;100.00;100223.59;5063666;28;20089;-61
2022/12/13 08:08:37;;;;;;;;;;;;;;;-5.24;100.00;100229.50;5065564;28;20007;-61
2022/12/13 08:11:07;;;;;;;;;;;;;;;-5.27;100.00;100227.94;5066911;28;20007;-61
2022/12/13 08:13:32;;;;;;;;;;;;;;;-5.24;100.00;100223.47;5064294;28;19927;-61
2022/12/13 08:15:59;;;;;;;;;;;;;;;-5.20;100.00;100214.63;5068493;28;20023;-61
2022/12/13 08:18:24;;;;;;;;;;;;;;;-5.18;100.00;100213.59;5068340;28;20411;-61
2022/12/13 08:20:49;;;;;;;;;;;;;;;-5.20;100.00;100210.28;5067541;28;19920;-60
2022/12/13 08:23:14;;;;;;;;;;;;;;;-5.18;100.00;100213.59;5069042;28;19929;-62
2022/12/13 08:25:40;;;;;;;;;;;;;;;-5.14;100.00;100209.88;5067610;28;20368;-61
2022/12/13 08:28:05;;;;;;;;;;;;;;;-5.06;100.00;100207.66;5070360;28;19929;-61
2022/12/13 08:30:31;;;;;;;;;;;;;;;-5.02;100.00;100210.03;5072754;28;19920;-61
2022/12/13 08:32:56;;;;;;;;;;;;;;;-4.98;100.00;100216.66;5066302;28;19928;-62
2022/12/13 08:35:21;;;;;;;;;;;;;;;-4.99;100.00;100215.84;5069515;28;19921;-62
2022/12/13 08:37:47;;;;;;;;;;;;;;;-5.00;100.00;100215.94;5069489;28;20356;-61
2022/12/13 08:40:12;;;;;;;;;;;;;;;-5.00;100.00;100214.19;5068297;28;19973;-61
2022/12/13 08:42:37;;;;;;;;;;;;;;;-5.02;100.00;100210.88;5030340;28;19936;-61
2022/12/13 08:45:03;;;;;;;;;;;;;;;-5.01;100.00;100212.50;5053912;28;20269;-61
2022/12/13 08:47:29;;;;;;;;;;;;;;;-4.96;100.00;100220.81;5072468;28;19924;-61
2022/12/13 08:49:55;;;;;;;;;;;;;;;-4.93;100.00;100209.44;5069830;28;20020;-62
2022/12/13 08:52:21;;;;;;;;;;;;;;;-4.94;100.00;100211.19;5074542;28;19949;-61
2022/12/13 08:54:46;;;;;;;;;;;;;;;-4.86;100.00;100219.28;5074027;28;19977;-62
2022/12/13 08:57:12;;;;;;;;;;;;;;;-4.82;100.00;100225.13;5078688;28;19925;-62
2022/12/13 08:59:37;;;;;;;;;;;;;;;-4.77;100.00;100225.66;5069918;28;19924;-61
2022/12/13 09:02:02;;;;;;;;;;;;;;;-4.74;100.00;100220.28;5068149;28;19927;-61
2022/12/13 09:04:27;;;;;;;;;;;;;;;-4.68;100.00;100211.28;5074392;28;19929;-62
2022/12/13 09:06:53;;;;;;;;;;;;;;;-4.65;100.00;100224.00;5063552;28;19931;-62
2022/12/13 09:09:18;;;;;;;;;;;;;;;-4.61;100.00;100223.72;5071405;28;19920;-62
2022/12/13 09:11:43;;;;;;;;;;;;;;;-4.55;100.00;100219.88;5074218;28;19966;-62
2022/12/13 09:14:09;;;;;;;;;;;;;;;-4.52;100.00;100216.28;5078793;28;20293;-62
2022/12/13 09:16:35;;;;;;;;;;;;;;;-4.51;100.00;100207.59;5063143;28;19935;-62
2022/12/13 09:19:01;;;;;;;;;;;;;;;-4.50;100.00;100215.25;5069251;28;20074;-61
2022/12/13 09:21:26;;;;;;;;;;;;;;;-4.49;100.00;100216.06;5071106;28;20401;-62
2022/12/13 09:23:52;;;;;;;;;;;;;;;-4.47;100.00;100209.03;5071955;28;19951;-61
2022/12/13 09:26:18;;;;;;;;;;;;;;;-4.41;100.00;100198.28;5076159;28;19970;-62
2022/12/13 09:28:43;;;;;;;;;;;;;;;-4.35;100.00;100197.88;5066706;28;19920;-62
2022/12/13 09:31:16;;;;;;;;;;;;;;;-4.29;100.00;100204.41;5082532;28;19920;-63
2022/12/13 09:33:42;;;;;;;;;;;;;;;-4.25;100.00;100198.91;5066407;28;19928;-62
2022/12/13 09:36:09;;;;;;;;;;;;;;;-4.20;100.00;100202.03;5071429;28;20279;-62
2022/12/13 09:38:34;;;;;;;;;;;;;;;-4.16;100.00;100194.88;5072296;28;19925;-62
2022/12/13 09:41:05;;;;;;;;;;;;;;;-4.11;100.00;100197.16;5074878;28;19928;-62
2022/12/13 09:43:32;;;;;;;;;;;;;;;-4.06;100.00;100192.50;5075465;28;19924;-62
2022/12/13 09:45:58;;;;;;;;;;;;;;;-3.99;100.00;100194.56;5070217;28;20385;-63
2022/12/13 09:48:24;;;;;;;;;;;;;;;-3.90;100.00;100193.09;5068795;28;19923;-63
2022/12/13 09:50:50;;;;;;;;;;;;;;;-3.85;100.00;100191.00;5071905;28;19917;-62
2022/12/13 09:53:16;;;;;;;;;;;;;;;-3.79;100.00;100193.19;5077305;28;20377;-63
2022/12/13 09:55:46;;;;;;;;;;;;;;;-3.74;100.00;100188.53;5069021;28;19928;-63
2022/12/13 09:58:23;;;;;;;;;;;;;;;-3.72;100.00;100178.03;5079926;28;19935;-63
2022/12/13 10:00:50;;;;;;;;;;;;;;;-3.67;100.00;100182.91;5070690;28;19924;-63
2022/12/13 10:03:17;;;;;;;;;;;;;;;-3.64;100.00;100182.69;5071570;28;19973;-63
2022/12/13 10:05:54;;;;;;;;;;;;;;;-3.59;100.00;100176.28;5069702;28;19928;-62
2022/12/13 10:08:24;;;;;;;;;;;;;;;-3.53;100.00;100170.66;5073561;28;19932;-63
2022/12/13 10:10:50;;;;;;;;;;;;;;;-3.47;100.00;100164.19;5069729;28;19928;-63
2022/12/13 10:13:15;;;;;;;;;;;;;;;-3.43;100.00;100168.25;5079832;28;19924;-62
2022/12/13 10:15:43;;;;;;;;;;;;;;;-3.39;100.00;100156.69;5078579;28;19969;-63
2022/12/13 10:18:11;;;;;;;;;;;;;;;-3.33;100.00;100161.47;5075389;28;20397;-63
2022/12/13 10:20:37;;;;;;;;;;;;;;;-3.23;100.00;100150.41;5075350;28;19931;-63
2022/12/13 10:23:02;;;;;;;;;;;;;;;-3.17;100.00;100155.19;5067080;28;19925;-63
2022/12/13 10:25:43;;;;;;;;;;;;;;;-3.10;100.00;100149.44;5077057;28;19932;-63
2022/12/13 10:28:09;;;;;;;;;;;;;;;-3.02;100.00;100148.03;5071044;28;19971;-63
2022/12/13 10:30:41;;;;;;;;;;;;;;;-2.94;100.00;100151.75;5066470;28;20495;-63
2022/12/13 10:33:17;;;;;;;;;;;;;;;-2.90;100.00;100150.56;5079337;28;19928;-63
2022/12/13 10:35:43;;;;;;;;;;;;;;;-2.81;100.00;100141.28;5075595;28;20303;-63
2022/12/13 10:38:09;;;;;;;;;;;;;;;-2.68;100.00;100142.03;5068598;28;19935;-63
2022/12/13 10:40:34;;;;;;;;;;;;;;;-2.54;100.00;100138.38;5074884;28;20381;-64
2022/12/13 10:43:06;;;;;;;;;;;;;;;-2.44;100.00;100133.34;5074214;28;19921;-64
2022/12/13 10:45:32;;;;;;;;;;;;;;;-2.36;100.00;100132.75;5074191;28;19921;-64
2022/12/13 10:47:57;;;;;;;;;;;;;;;-2.28;100.00;100125.19;5067498;28;19924;-63
2022/12/13 10:50:24;;;;;;;;;;;;;;;-2.15;100.00;100115.53;5074486;28;19928;-63
2022/12/13 10:52:50;;;;;;;;;;;;;;;-2.03;100.00;100118.97;5069697;28;19920;-64
2022/12/13 10:55:27;;;;;;;;;;;;;;;-2.03;100.00;100111.97;5080038;28;19927;-64
2022/12/13 10:57:55;;;;;;;;;;;;;;;-2.03;100.00;100121.56;5073807;28;19927;-64
2022/12/13 11:00:35;;;;;;;;;;;;;;;-1.97;100.00;100114.09;5075736;28;19948;-64
2022/12/13 11:03:00;;;;;;;;;;;;;;;-1.90;100.00;100122.25;5068454;28;19917;-64
2022/12/13 11:05:28;;;;;;;;;;;;;;;-1.83;100.00;100112.22;5076551;28;20003;-64
2022/12/13 11:07:56;;;;;;;;;;;;;;;-1.73;100.00;100105.31;5066982;28;19981;-64
2022/12/13 11:10:21;;;;;;;;;;;;;;;-1.61;100.00;100101.75;5076878;28;19967;-65
2022/12/13 11:12:48;;;;;;;;;;;;;;;-1.52;100.00;100094.16;5075988;28;19966;-64
2022/12/13 11:15:18;;;;;;;;;;;;;;;-1.45;100.00;100100.53;5070524;28;19921;-64
2022/12/13 11:17:54;;;;;;;;;;;;;;;-1.45;100.00;100101.34;5074924;28;20533;-64
2022/12/13 11:20:21;;;;;;;;;;;;;;;-1.34;100.00;100092.72;5072865;28;19924;-65
2022/12/13 11:22:48;;;;;;;;;;;;;;;-1.31;100.00;100095.06;5078371;28;19969;-65
2022/12/13 11:25:24;;;;;;;;;;;;;;;-1.33;100.00;100084.78;5073031;28;19921;-65
2022/12/13 11:28:08;;;;;;;;;;;;;;;-1.30;100.00;100086.28;5074539;28;20266;-65
2022/12/13 11:30:49;;;;;;;;;;;;;;;-1.27;100.00;100082.63;5076319;28;19927;-65
2022/12/13 11:33:31;;;;;;;;;;;;;;;-1.22;100.00;100078.69;5074201;28;19937;-64
2022/12/13 11:36:03;;;;;;;;;;;;;;;-1.18;100.00;100071.47;5076493;28;19925;-65
2022/12/13 11:38:31;;;;;;;;;;;;;;;-1.12;100.00;100078.78;5073098;28;19924;-64
2022/12/13 11:41:06;;;;;;;;;;;;;;;-1.08;100.00;100081.94;5079460;28;20369;-64
2022/12/13 11:43:48;;;;;;;;;;;;;;;-1.10;100.00;100064.69;5081380;28;19927;-64
2022/12/13 11:46:17;;;;;;;;;;;;;;;-1.08;100.00;100071.53;5084833;28;19920;-64
2022/12/13 11:48:46;;;;;;;;;;;;;;;-1.03;100.00;100061.56;5075542;28;20003;-64
2022/12/13 11:51:14;;;;;;;;;;;;;;;-1.00;100.00;100048.31;5067661;28;20362;-63
2022/12/13 11:53:46;;;;;;;;;;;;;;;-0.94;100.00;100042.59;5079121;28;19921;-64
2022/12/13 11:56:19;;;;;;;;;;;;;;;-0.94;100.00;100037.41;5075753;28;19924;-64
2022/12/13 11:58:49;;;;;;;;;;;;;;;-0.92;100.00;100036.31;5080032;28;19927;-64
2022/12/13 12:01:21;;;;;;;;;;;;;;;-0.85;100.00;100026.22;5072307;28;19944;-64
2022/12/13 12:03:53;;;;;;;;;;;;;;;-0.81;100.00;100017.19;5072141;28;19963;-65
2022/12/13 12:06:22;;;;;;;;;;;;;;;-0.82;100.00;100015.56;5071702;28;19977;-64
2022/12/13 12:09:01;;;;;;;;;;;;;;;-0.79;100.00;100012.69;5073068;28;20416;-64
2022/12/13 12:11:43;;;;;;;;;;;;;;;-0.76;100.00;100004.63;5073242;28;20273;-65
2022/12/13 12:14:09;;;;;;;;;;;;;;;-0.71;100.00;99989.44;5073420;28;20066;-64
2022/12/13 12:16:47;;;;;;;;;;;;;;;-0.67;100.00;99993.44;5077413;28;20018;-64
2022/12/13 12:19:14;;;;;;;;;;;;;;;-0.62;100.00;99994.81;5072254;28;19942;-65
2022/12/13 12:21:58;;;;;;;;;;;;;;;-0.59;100.00;99986.75;5073557;28;20000;-64
2022/12/13 12:24:36;;;;;;;;;;;;;;;-0.58;100.00;99975.38;5080577;28;20589;-64
2022/12/13 12:27:28;;;;;;;;;;;;;;;-0.55;100.00;99973.31;5077980;28;20019;-64
2022/12/13 12:30:03;;;;;;;;;;;;;;;-0.49;100.00;99967.59;5075697;28;19932;-64
2022/12/13 12:32:35;;;;;;;;;;;;;;;-0.46;100.00;99964.72;5076376;28;19925;-64
2022/12/13 12:35:15;;;;;;;;;;;;;;;-0.42;100.00;99959.25;5080818;28;20297;-63